Time;durP1;ratioP1;P1;durP2;ratioP2;P2;SDS_P1;SDS_P2;PMS_P1;PMS_P2;Temp;Humidity;BMP_temperature;BMP_pressure;BME280_temperature;BME280_humidity;BME280_pressure;Samples;Min_cycle;Max_cycle;Signal;HPM_P1;HPM_P2
2023/08/18 00:00:25;;;;;;;4.20;1.70;;;44.70;30.20;;;;;;5047365;28;20021;-62
2023/08/18 00:02:52;;;;;;;12.57;2.50;;;44.60;30.80;;;;;;5047253;28;20017;-60
2023/08/18 00:05:18;;;;;;;13.70;1.88;;;44.40;31.30;;;;;;5046786;28;20028;-57
2023/08/18 00:07:45;;;;;;;5.25;1.75;;;44.40;30.70;;;;;;5046726;28;20040;-58
2023/08/18 00:10:11;;;;;;;8.02;1.83;;;44.30;31.20;;;;;;5048284;28;20226;-57
2023/08/18 00:12:37;;;;;;;5.70;1.65;;;44.20;31.10;;;;;;5047301;28;20527;-58
2023/08/18 00:15:05;;;;;;;8.77;1.70;;;44.00;31.70;;;;;;5046714;28;20025;-60
2023/08/18 00:17:31;;;;;;;7.18;1.80;;;44.00;30.90;;;;;;5047523;28;20017;-59
2023/08/18 00:19:57;;;;;;;11.68;2.22;;;44.10;32.20;;;;;;5046018;28;20017;-60
2023/08/18 00:22:24;;;;;;;18.02;2.45;;;43.90;31.60;;;;;;5044208;28;20107;-62
2023/08/18 00:24:51;;;;;;;16.35;2.63;;;43.90;32.30;;;;;;5044911;28;20025;-61
2023/08/18 00:27:17;;;;;;;8.10;1.92;;;43.80;32.20;;;;;;5043628;28;20392;-58
2023/08/18 00:29:44;;;;;;;10.65;2.25;;;43.70;32.00;;;;;;5046935;28;20161;-57
2023/08/18 00:32:10;;;;;;;8.68;1.90;;;43.60;31.60;;;;;;5045858;28;20018;-59
2023/08/18 00:34:37;;;;;;;8.63;1.92;;;43.60;31.50;;;;;;5044528;28;20013;-54
2023/08/18 00:37:03;;;;;;;6.15;1.73;;;43.60;31.80;;;;;;5045034;28;20322;-60
2023/08/18 00:39:30;;;;;;;7.03;1.90;;;43.50;31.80;;;;;;5044540;28;20388;-61
2023/08/18 00:41:57;;;;;;;10.57;2.00;;;43.40;32.10;;;;;;5045909;28;20087;-59
2023/08/18 00:44:23;;;;;;;23.80;3.05;;;43.40;31.40;;;;;;5049397;28;20033;-58
2023/08/18 00:46:49;;;;;;;102.53;9.15;;;43.40;31.30;;;;;;5049864;28;20414;-58
2023/08/18 00:49:18;;;;;;;18.88;2.85;;;43.40;31.90;;;;;;5049718;28;20831;-57
2023/08/18 00:51:45;;;;;;;6.82;2.00;;;43.50;32.00;;;;;;5049881;28;20533;-56
2023/08/18 00:54:12;;;;;;;8.95;1.90;;;43.50;32.80;;;;;;5048894;28;20111;-57
2023/08/18 00:56:40;;;;;;;9.68;2.28;;;43.40;32.40;;;;;;5047873;28;20017;-60
2023/08/18 00:59:06;;;;;;;13.52;2.20;;;43.50;32.00;;;;;;5051667;28;20045;-61
2023/08/18 01:01:34;;;;;;;5.93;1.83;;;43.60;32.30;;;;;;5057968;28;20079;-60
2023/08/18 01:04:00;;;;;;;9.60;2.35;;;43.50;32.60;;;;;;5047983;28;20036;-60
2023/08/18 01:06:27;;;;;;;7.75;1.90;;;43.50;32.00;;;;;;5048821;28;20477;-59
2023/08/18 01:08:54;;;;;;;9.32;1.80;;;43.40;31.30;;;;;;5048884;28;20156;-59
2023/08/18 01:11:53;;;;;;;11.07;2.10;;;43.40;31.60;;;;;;5050493;28;20104;-58
2023/08/18 01:14:38;;;;;;;16.00;2.83;;;43.40;31.20;;;;;;5050655;28;20503;-58
2023/08/18 01:17:17;;;;;;;7.37;2.07;;;43.40;32.10;;;;;;5050298;28;20021;-61
2023/08/18 01:19:45;;;;;;;9.25;2.20;;;43.50;31.60;;;;;;5046003;28;20055;-57
2023/08/18 01:22:13;;;;;;;9.18;1.75;;;43.50;31.30;;;;;;5050377;28;20104;-59
2023/08/18 01:24:40;;;;;;;6.95;1.95;;;43.50;31.40;;;;;;5050191;28;20044;-60
2023/08/18 01:27:07;;;;;;;8.68;1.77;;;43.50;31.20;;;;;;5049818;28;20021;-58
2023/08/18 01:29:34;;;;;;;11.02;2.05;;;43.50;31.20;;;;;;5048914;28;20025;-59
2023/08/18 01:32:04;;;;;;;19.15;2.03;;;43.50;31.20;;;;;;5050130;28;20079;-60
2023/08/18 01:34:33;;;;;;;12.00;1.85;;;43.40;31.20;;;;;;5048826;28;20021;-60
2023/08/18 01:37:01;;;;;;;8.48;2.00;;;43.40;31.20;;;;;;5050198;28;20062;-60
2023/08/18 01:39:28;;;;;;;5.50;2.03;;;43.40;31.70;;;;;;5052322;28;20094;-56
2023/08/18 01:41:55;;;;;;;6.97;1.73;;;43.40;31.90;;;;;;5049675;28;20090;-58
2023/08/18 01:44:21;;;;;;;9.75;2.00;;;43.40;32.30;;;;;;5050020;28;20437;-56
2023/08/18 01:46:48;;;;;;;8.82;2.22;;;43.30;32.00;;;;;;5051080;28;20021;-58
2023/08/18 01:49:15;;;;;;;11.85;2.30;;;43.20;32.20;;;;;;5049622;28;20103;-56
2023/08/18 01:51:41;;;;;;;9.68;2.58;;;43.20;31.60;;;;;;5049872;28;20055;-59
2023/08/18 01:54:09;;;;;;;16.80;2.92;;;43.20;31.60;;;;;;5048112;28;20040;-58
2023/08/18 01:56:35;;;;;;;4.45;1.80;;;43.20;31.50;;;;;;5048726;28;21328;-59
2023/08/18 01:59:04;;;;;;;8.93;2.42;;;43.10;31.50;;;;;;5049127;28;20055;-60
2023/08/18 02:01:30;;;;;;;9.80;2.35;;;43.10;31.50;;;;;;5047267;28;20029;-59
2023/08/18 02:03:56;;;;;;;22.13;3.20;;;43.10;31.30;;;;;;5048834;28;20013;-60
2023/08/18 02:06:23;;;;;;;18.80;2.95;;;43.10;31.40;;;;;;5049600;28;20021;-57
2023/08/18 02:08:49;;;;;;;25.65;2.97;;;43.00;31.60;;;;;;5049412;28;20186;-61
2023/08/18 02:11:16;;;;;;;12.98;2.58;;;43.00;31.90;;;;;;5050648;28;20021;-57
2023/08/18 02:13:42;;;;;;;13.90;2.20;;;42.90;31.00;;;;;;5048534;28;20012;-63
2023/08/18 02:16:09;;;;;;;6.63;1.85;;;42.90;30.90;;;;;;5048705;28;20024;-65
2023/08/18 02:18:35;;;;;;;14.63;2.00;;;42.80;31.20;;;;;;5047537;28;20057;-61
2023/08/18 02:21:02;;;;;;;12.43;2.50;;;42.70;31.60;;;;;;5047864;28;20025;-59
2023/08/18 02:23:29;;;;;;;11.20;2.05;;;42.60;32.10;;;;;;5051014;28;20025;-58
2023/08/18 02:26:03;;;;;;;10.50;2.50;;;42.50;33.00;;;;;;5048865;28;20017;-59
2023/08/18 02:28:30;;;;;;;20.20;2.33;;;42.30;33.80;;;;;;5049339;28;20024;-62
2023/08/18 02:31:07;;;;;;;12.07;2.70;;;42.20;32.30;;;;;;5049090;28;20120;-60
2023/08/18 02:33:35;;;;;;;15.65;4.47;;;42.10;31.30;;;;;;5047874;28;21623;-58
2023/08/18 02:36:02;;;;;;;19.70;4.03;;;42.00;30.20;;;;;;5047231;28;20456;-61
2023/08/18 02:38:29;;;;;;;17.77;3.17;;;42.00;30.00;;;;;;5051886;28;20359;-60
2023/08/18 02:40:56;;;;;;;27.42;3.80;;;41.90;29.90;;;;;;5047201;28;20494;-61
2023/08/18 02:43:24;;;;;;;18.67;3.50;;;41.90;30.00;;;;;;5054309;28;20487;-60
2023/08/18 02:45:56;;;;;;;13.98;3.13;;;41.90;30.40;;;;;;5050265;28;20056;-63
2023/08/18 02:48:23;;;;;;;20.13;2.90;;;41.80;30.80;;;;;;5049347;28;20017;-64
2023/08/18 02:50:50;;;;;;;21.63;3.00;;;41.80;30.30;;;;;;5045969;28;20032;-61
2023/08/18 02:53:16;;;;;;;19.52;3.28;;;41.70;30.20;;;;;;5047515;28;20017;-61
2023/08/18 02:55:43;;;;;;;29.20;3.58;;;41.70;30.40;;;;;;5047645;28;20023;-60
2023/08/18 02:58:09;;;;;;;27.25;3.25;;;41.60;30.00;;;;;;5047182;28;20040;-61
2023/08/18 03:00:36;;;;;;;23.65;3.20;;;41.50;29.70;;;;;;5055002;28;20025;-62
2023/08/18 03:03:03;;;;;;;19.48;2.97;;;41.50;29.90;;;;;;5053514;28;20044;-60
2023/08/18 03:05:29;;;;;;;14.05;2.70;;;41.40;29.70;;;;;;5048361;28;20058;-66
2023/08/18 03:07:55;;;;;;;9.73;2.50;;;41.40;30.00;;;;;;5046348;28;20068;-65
2023/08/18 03:10:22;;;;;;;30.88;3.38;;;41.30;30.00;;;;;;5057788;28;20029;-63
2023/08/18 03:12:48;;;;;;;16.20;2.58;;;41.20;30.00;;;;;;5049403;28;20092;-62
2023/08/18 03:15:15;;;;;;;17.67;2.85;;;41.10;29.90;;;;;;5047143;28;20381;-68
2023/08/18 03:17:41;;;;;;;60.70;4.47;;;41.00;29.90;;;;;;5049148;28;20127;-62
2023/08/18 03:20:08;;;;;;;9.10;3.22;;;40.90;30.10;;;;;;5053067;28;20103;-60
2023/08/18 03:22:35;;;;;;;24.52;4.13;;;40.90;30.10;;;;;;5049287;28;20056;-60
2023/08/18 03:25:03;;;;;;;11.05;3.80;;;40.90;29.90;;;;;;5048430;28;20013;-60
2023/08/18 03:27:29;;;;;;;14.55;3.85;;;40.80;29.50;;;;;;5047419;28;20021;-62
2023/08/18 03:29:55;;;;;;;13.57;4.40;;;40.80;29.80;;;;;;5046643;28;20481;-63
2023/08/18 03:32:22;;;;;;;37.50;4.72;;;40.70;29.40;;;;;;5048578;28;20017;-62
2023/08/18 03:34:49;;;;;;;21.17;4.72;;;40.70;29.40;;;;;;5045231;28;21356;-66
2023/08/18 03:37:15;;;;;;;16.92;4.20;;;40.70;29.30;;;;;;5046094;28;20024;-61
2023/08/18 03:39:41;;;;;;;18.15;4.90;;;40.60;29.40;;;;;;5047423;28;20385;-61
2023/08/18 03:42:08;;;;;;;12.20;5.10;;;40.50;29.60;;;;;;5046913;28;20021;-60
2023/08/18 03:44:34;;;;;;;14.32;5.63;;;40.40;29.90;;;;;;5056218;28;20032;-65
2023/08/18 03:47:02;;;;;;;14.20;5.18;;;40.40;29.50;;;;;;5056057;28;20037;-63
2023/08/18 03:49:29;;;;;;;13.45;5.45;;;40.30;29.60;;;;;;5046238;28;20044;-63
2023/08/18 03:51:55;;;;;;;15.27;6.43;;;40.30;29.80;;;;;;5047193;28;20416;-63
2023/08/18 03:54:22;;;;;;;19.40;6.93;;;40.20;29.60;;;;;;5046896;28;20027;-62
2023/08/18 03:56:50;;;;;;;17.77;6.95;;;40.20;29.60;;;;;;5047661;28;20013;-61
2023/08/18 03:59:17;;;;;;;22.27;8.90;;;40.20;29.60;;;;;;5046742;28;20024;-61
2023/08/18 04:01:43;;;;;;;14.70;8.40;;;40.20;29.20;;;;;;5045401;28;20036;-63
2023/08/18 04:04:09;;;;;;;16.70;8.60;;;40.10;29.50;;;;;;5044658;28;20052;-63
2023/08/18 04:06:36;;;;;;;23.05;9.40;;;40.00;29.50;;;;;;5046154;28;20021;-65
2023/08/18 04:09:08;;;;;;;15.15;8.63;;;40.00;29.50;;;;;;5045576;28;20084;-61
2023/08/18 04:11:35;;;;;;;13.73;8.05;;;39.90;29.50;;;;;;5048973;28;20101;-65
2023/08/18 04:14:03;;;;;;;13.93;7.82;;;39.80;29.50;;;;;;5046348;28;20028;-64
2023/08/18 04:16:31;;;;;;;15.48;7.57;;;39.80;29.60;;;;;;5044895;28;20015;-65
2023/08/18 04:18:58;;;;;;;16.73;7.43;;;39.80;29.40;;;;;;5045298;28;20074;-63
2023/08/18 04:21:25;;;;;;;10.63;6.82;;;39.70;29.30;;;;;;5045550;28;20146;-65
2023/08/18 04:23:52;;;;;;;13.52;6.90;;;39.80;29.20;;;;;;5048023;28;20013;-63
2023/08/18 04:26:18;;;;;;;8.30;6.47;;;39.70;29.10;;;;;;5047701;28;20079;-64
2023/08/18 04:28:46;;;;;;;12.38;5.68;;;39.60;29.10;;;;;;5047394;28;20605;-65
2023/08/18 04:31:13;;;;;;;13.02;6.18;;;39.60;28.70;;;;;;5049685;28;20462;-63
2023/08/18 04:33:39;;;;;;;12.40;6.13;;;39.50;28.90;;;;;;5045207;28;20115;-65
2023/08/18 04:36:06;;;;;;;24.75;6.18;;;39.50;28.70;;;;;;5047590;28;20047;-62
2023/08/18 04:38:32;;;;;;;18.05;5.75;;;39.50;28.70;;;;;;5045889;28;20084;-64
2023/08/18 04:41:02;;;;;;;13.73;6.20;;;39.40;28.70;;;;;;5048084;28;20108;-63
2023/08/18 04:43:30;;;;;;;9.40;4.50;;;39.40;28.80;;;;;;5045585;28;20429;-62
2023/08/18 04:45:57;;;;;;;10.63;5.05;;;39.40;28.80;;;;;;5046190;28;20013;-64
2023/08/18 04:48:24;;;;;;;10.45;5.18;;;39.30;28.90;;;;;;5046538;28;20024;-64
2023/08/18 04:50:51;;;;;;;9.63;5.15;;;39.20;29.00;;;;;;5046665;28;20077;-63
2023/08/18 04:53:17;;;;;;;8.55;5.32;;;39.20;29.10;;;;;;5044664;28;20040;-62
2023/08/18 04:55:44;;;;;;;12.60;5.45;;;39.10;29.00;;;;;;5046894;28;20104;-63
2023/08/18 04:58:13;;;;;;;11.70;4.95;;;39.10;29.10;;;;;;5046630;28;20013;-68
2023/08/18 05:00:43;;;;;;;11.85;4.55;;;39.10;29.30;;;;;;5047689;28;20062;-62
2023/08/18 05:03:13;;;;;;;9.73;3.75;;;39.00;29.30;;;;;;5047021;28;20018;-64
2023/08/18 05:05:46;;;;;;;8.90;3.65;;;39.00;29.40;;;;;;5046017;28;20507;-62
2023/08/18 05:08:12;;;;;;;10.98;3.58;;;38.90;29.40;;;;;;5045644;28;20071;-64
2023/08/18 05:10:38;;;;;;;8.35;3.25;;;38.80;29.50;;;;;;5051341;28;20340;-66
2023/08/18 05:13:05;;;;;;;7.32;3.03;;;38.80;29.50;;;;;;5046740;28;20112;-64
2023/08/18 05:15:31;;;;;;;11.13;2.58;;;38.80;29.70;;;;;;5046453;28;20051;-63
2023/08/18 05:17:58;;;;;;;6.10;3.55;;;38.70;29.60;;;;;;5047263;28;20013;-64
2023/08/18 05:20:24;;;;;;;5.30;2.88;;;38.70;29.70;;;;;;5047046;28;20032;-63
2023/08/18 05:22:51;;;;;;;8.13;2.92;;;38.70;29.70;;;;;;5046019;28;20038;-62
2023/08/18 05:25:18;;;;;;;11.18;2.45;;;38.70;29.80;;;;;;5049760;28;20024;-63
2023/08/18 05:27:44;;;;;;;7.50;2.47;;;38.70;29.70;;;;;;5047780;28;20021;-63
2023/08/18 05:30:12;;;;;;;9.00;2.80;;;38.60;29.60;;;;;;5048065;28;20051;-65
2023/08/18 05:32:38;;;;;;;7.63;2.60;;;38.50;29.70;;;;;;5049607;28;20013;-64
2023/08/18 05:35:05;;;;;;;7.82;2.30;;;38.50;29.70;;;;;;5053319;28;20104;-63
2023/08/18 05:37:32;;;;;;;12.45;2.45;;;38.50;29.60;;;;;;5052726;28;20012;-64
2023/08/18 05:39:58;;;;;;;10.75;2.33;;;38.50;29.80;;;;;;5049540;28;20099;-64
2023/08/18 05:42:24;;;;;;;5.55;2.53;;;38.40;29.70;;;;;;5049229;28;20381;-63
2023/08/18 05:44:51;;;;;;;6.55;2.67;;;38.40;29.60;;;;;;5056038;28;20021;-66
2023/08/18 05:47:17;;;;;;;10.77;2.78;;;38.40;29.60;;;;;;5050307;28;20072;-64
2023/08/18 05:49:44;;;;;;;12.82;3.42;;;38.40;29.50;;;;;;5048756;28;20047;-64
2023/08/18 05:52:10;;;;;;;16.45;3.08;;;38.30;29.30;;;;;;5048783;28;20066;-63
2023/08/18 05:54:37;;;;;;;5.55;2.05;;;38.20;29.30;;;;;;5050300;28;20369;-65
2023/08/18 05:57:03;;;;;;;9.68;2.50;;;38.20;29.30;;;;;;5061945;28;20017;-65
2023/08/18 05:59:32;;;;;;;5.55;2.17;;;38.10;29.30;;;;;;5048921;28;20028;-62
2023/08/18 06:01:58;;;;;;;7.90;2.35;;;38.10;29.40;;;;;;5048595;28;20376;-62
2023/08/18 06:04:25;;;;;;;4.25;2.15;;;38.10;29.40;;;;;;5047178;28;20016;-64
2023/08/18 06:06:51;;;;;;;3.60;2.30;;;38.10;29.50;;;;;;5048416;28;20485;-63
2023/08/18 06:09:19;;;;;;;6.95;2.40;;;38.00;29.60;;;;;;5046797;28;20048;-62
2023/08/18 06:11:45;;;;;;;6.45;2.17;;;38.00;29.50;;;;;;5050709;28;20093;-62
2023/08/18 06:14:11;;;;;;;5.20;2.10;;;38.00;29.40;;;;;;5048245;28;20009;-65
2023/08/18 06:16:38;;;;;;;5.78;1.90;;;38.00;29.30;;;;;;5047541;28;20020;-64
2023/08/18 06:19:04;;;;;;;3.50;1.90;;;37.90;29.50;;;;;;5049007;28;20017;-62
2023/08/18 06:21:31;;;;;;;6.47;2.10;;;37.90;29.30;;;;;;5048005;28;20013;-63
2023/08/18 06:23:57;;;;;;;8.80;2.40;;;37.90;29.90;;;;;;5045176;28;20036;-62
2023/08/18 06:26:23;;;;;;;5.32;2.10;;;37.80;29.10;;;;;;5048608;28;20097;-63
2023/08/18 06:28:50;;;;;;;6.60;2.50;;;37.80;29.00;;;;;;5045014;28;20107;-63
2023/08/18 06:31:16;;;;;;;4.43;2.03;;;37.70;28.80;;;;;;5046576;28;20395;-62
2023/08/18 06:33:43;;;;;;;14.02;2.90;;;37.70;29.20;;;;;;5048560;28;20009;-61
2023/08/18 06:36:09;;;;;;;5.57;2.03;;;37.70;29.60;;;;;;5048657;28;20027;-62
2023/08/18 06:38:36;;;;;;;9.15;2.10;;;37.70;29.00;;;;;;5044937;28;20020;-64
2023/08/18 06:41:02;;;;;;;12.27;2.20;;;37.60;29.10;;;;;;5050049;28;20063;-62
2023/08/18 06:43:29;;;;;;;4.47;2.00;;;37.60;29.20;;;;;;5049373;28;20025;-63
2023/08/18 06:45:55;;;;;;;5.20;1.67;;;37.50;29.10;;;;;;5046985;28;20064;-64
2023/08/18 06:48:22;;;;;;;5.30;1.80;;;37.50;29.10;;;;;;5046985;28;20020;-64
2023/08/18 06:50:48;;;;;;;7.15;2.00;;;37.50;29.20;;;;;;5050363;28;20031;-63
2023/08/18 06:53:14;;;;;;;5.28;1.83;;;37.50;28.90;;;;;;5047754;28;20045;-63
2023/08/18 06:55:41;;;;;;;4.43;1.90;;;37.40;28.80;;;;;;5046930;28;20013;-63
2023/08/18 06:58:07;;;;;;;3.95;1.67;;;37.30;28.60;;;;;;5048581;28;20017;-63
2023/08/18 07:00:33;;;;;;;10.75;2.10;;;37.30;28.40;;;;;;5047786;28;20025;-62
2023/08/18 07:03:00;;;;;;;4.65;2.17;;;37.40;28.30;;;;;;5046763;28;20032;-63
2023/08/18 07:05:26;;;;;;;3.67;1.77;;;37.30;28.10;;;;;;5048251;28;20017;-63
2023/08/18 07:07:54;;;;;;;4.10;2.03;;;37.30;28.10;;;;;;5047263;28;20435;-63
2023/08/18 07:10:22;;;;;;;5.57;1.98;;;37.20;28.10;;;;;;5049172;28;20044;-63
2023/08/18 07:12:48;;;;;;;5.82;2.13;;;37.20;28.20;;;;;;5045766;28;20029;-62
2023/08/18 07:15:15;;;;;;;3.97;1.92;;;37.20;28.10;;;;;;5046693;28;20013;-62
2023/08/18 07:17:41;;;;;;;4.47;1.90;;;37.20;27.90;;;;;;5048029;28;20036;-63
2023/08/18 07:20:10;;;;;;;9.77;2.47;;;37.10;28.00;;;;;;5047666;28;20958;-62
2023/08/18 07:22:36;;;;;;;3.70;1.80;;;37.10;27.60;;;;;;5048774;28;20136;-64
2023/08/18 07:25:04;;;;;;;4.53;1.90;;;37.10;28.10;;;;;;5048165;28;20024;-62
2023/08/18 07:27:30;;;;;;;6.03;1.90;;;37.00;28.00;;;;;;5047549;28;20033;-63
2023/08/18 07:29:57;;;;;;;6.13;1.77;;;36.90;28.00;;;;;;5047459;28;20032;-63
2023/08/18 07:32:23;;;;;;;5.28;1.95;;;36.90;28.30;;;;;;5047382;28;20547;-62
2023/08/18 07:34:50;;;;;;;3.75;1.52;;;36.80;28.40;;;;;;5048195;28;20020;-64
2023/08/18 07:37:16;;;;;;;7.00;2.03;;;36.70;28.60;;;;;;5050931;28;20096;-64
2023/08/18 07:39:42;;;;;;;11.18;2.10;;;36.60;28.40;;;;;;5049853;28;20017;-61
2023/08/18 07:42:09;;;;;;;3.13;1.90;;;36.60;28.40;;;;;;5047274;28;20021;-64
2023/08/18 07:44:35;;;;;;;5.63;2.00;;;36.50;28.30;;;;;;5047318;28;20027;-64
2023/08/18 07:47:03;;;;;;;5.38;1.90;;;36.50;28.80;;;;;;5046062;28;20101;-63
2023/08/18 07:49:29;;;;;;;2.97;1.90;;;36.40;28.50;;;;;;5045585;28;20029;-63
2023/08/18 07:51:56;;;;;;;3.75;1.50;;;36.40;28.70;;;;;;5045874;28;20017;-60
2023/08/18 07:54:23;;;;;;;5.57;1.92;;;36.40;28.70;;;;;;5045520;28;20013;-64
2023/08/18 07:56:50;;;;;;;4.45;1.73;;;36.40;28.90;;;;;;5050182;28;20066;-63
2023/08/18 07:59:16;;;;;;;6.63;2.35;;;36.30;28.60;;;;;;5048347;28;20677;-63
2023/08/18 08:01:43;;;;;;;10.60;2.00;;;36.30;29.10;;;;;;5046965;28;20013;-64
2023/08/18 08:04:09;;;;;;;8.65;1.77;;;36.30;28.80;;;;;;5056384;28;20104;-63
2023/08/18 08:06:36;;;;;;;7.90;2.05;;;36.20;28.80;;;;;;5051791;28;20128;-63
2023/08/18 08:09:03;;;;;;;11.77;2.00;;;36.20;28.80;;;;;;5046630;28;20045;-63
2023/08/18 08:11:32;;;;;;;17.00;2.78;;;36.20;28.60;;;;;;5058949;22;20048;-63
2023/08/18 08:13:58;;;;;;;13.85;2.78;;;36.10;30.70;;;;;;5047312;28;20017;-63
2023/08/18 08:16:24;;;;;;;19.73;3.30;;;36.10;31.70;;;;;;5047100;28;20100;-64
2023/08/18 08:18:51;;;;;;;16.77;3.17;;;35.90;33.10;;;;;;5051497;28;20095;-64
2023/08/18 08:21:17;;;;;;;29.48;3.00;;;36.00;32.80;;;;;;5047109;28;20021;-61
2023/08/18 08:23:44;;;;;;;8.57;2.67;;;36.00;32.60;;;;;;5066312;28;20021;-63
2023/08/18 08:26:10;;;;;;;22.95;3.78;;;36.10;32.50;;;;;;5071138;28;20016;-63
2023/08/18 08:28:37;;;;;;;27.45;3.45;;;36.00;32.40;;;;;;5068585;28;20016;-64
2023/08/18 08:31:03;;;;;;;15.57;3.30;;;36.00;32.20;;;;;;5066839;28;20067;-62
2023/08/18 08:33:31;;;;;;;26.42;3.38;;;36.00;32.20;;;;;;5071952;28;20024;-64
2023/08/18 08:35:58;;;;;;;19.95;3.05;;;36.00;31.90;;;;;;5070300;28;20095;-63
2023/08/18 08:38:25;;;;;;;20.58;3.22;;;35.90;31.90;;;;;;5080759;28;20372;-61
2023/08/18 08:40:54;;;;;;;21.63;3.13;;;35.90;33.30;;;;;;5067158;28;20024;-63
2023/08/18 08:43:21;;;;;;;15.52;3.13;;;35.90;32.10;;;;;;5072236;28;20016;-64
2023/08/18 08:45:48;;;;;;;19.60;3.28;;;35.80;32.00;;;;;;5067113;28;20533;-62
2023/08/18 08:48:17;;;;;;;21.58;2.70;;;35.80;32.10;;;;;;5064868;28;20031;-62
2023/08/18 08:50:49;;;;;;;21.52;2.92;;;35.70;31.80;;;;;;5065470;28;20074;-63
2023/08/18 08:53:20;;;;;;;11.63;2.92;;;35.70;31.70;;;;;;5065524;28;20412;-62
2023/08/18 08:55:48;;;;;;;15.73;2.20;;;35.60;32.90;;;;;;5065831;28;20019;-63
2023/08/18 08:58:15;;;;;;;20.58;3.05;;;35.60;32.70;;;;;;5066010;28;20074;-63
2023/08/18 09:00:42;;;;;;;20.65;2.35;;;35.50;32.20;;;;;;5066687;28;20097;-62
2023/08/18 09:03:09;;;;;;;15.80;2.70;;;35.50;39.50;;;;;;5066330;28;20023;-63
2023/08/18 09:05:35;;;;;;;22.42;2.78;;;35.60;43.30;;;;;;5068284;28;20044;-63
2023/08/18 09:08:02;;;;;;;22.88;2.67;;;35.60;44.30;;;;;;5071553;28;20559;-64
2023/08/18 09:10:29;;;;;;;12.98;2.78;;;35.60;46.90;;;;;;5070777;28;20147;-63
2023/08/18 09:12:55;;;;;;;12.75;2.67;;;35.50;47.80;;;;;;5069396;28;20009;-62
2023/08/18 09:15:23;;;;;;;17.23;2.47;;;35.50;49.40;;;;;;5069303;28;20532;-62
2023/08/18 09:17:53;;;;;;;22.88;2.85;;;35.40;51.10;;;;;;5073869;28;20052;-62
2023/08/18 09:20:19;;;;;;;30.13;3.38;;;35.40;51.40;;;;;;5068653;28;20028;-58
2023/08/18 09:22:45;;;;;;;22.02;2.53;;;35.40;51.60;;;;;;5073395;28;20551;-64
2023/08/18 09:25:13;;;;;;;17.92;2.70;;;35.50;52.10;;;;;;5076064;28;20027;-64
2023/08/18 09:27:39;;;;;;;25.75;3.13;;;35.60;51.70;;;;;;5070382;28;20052;-65
2023/08/18 09:30:06;;;;;;;23.98;2.70;;;35.80;51.70;;;;;;5070733;28;20033;-66
2023/08/18 09:32:36;;;;;;;15.13;2.90;;;35.70;52.00;;;;;;5069845;28;20024;-65
2023/08/18 09:35:03;;;;;;;24.33;3.00;;;35.80;52.10;;;;;;5069584;28;20400;-63
2023/08/18 09:37:30;;;;;;;17.42;2.35;;;35.80;52.40;;;;;;5076068;28;20019;-64
2023/08/18 09:39:58;;;;;;;25.65;3.05;;;35.80;52.50;;;;;;5069672;28;20016;-65
2023/08/18 09:42:24;;;;;;;32.78;3.30;;;35.90;52.50;;;;;;5071463;28;20031;-67
2023/08/18 09:44:53;;;;;;;15.75;3.03;;;35.80;52.60;;;;;;5068916;28;20024;-65
2023/08/18 09:47:22;;;;;;;27.33;3.67;;;35.80;52.90;;;;;;5069948;28;20874;-65
2023/08/18 09:49:51;;;;;;;23.27;2.90;;;35.80;53.20;;;;;;5071027;28;21036;-64
2023/08/18 09:52:19;;;;;;;32.15;3.80;;;35.80;53.40;;;;;;5075956;28;20023;-64
2023/08/18 09:55:07;;;;;;;23.92;3.63;;;35.80;53.50;;;;;;5075600;28;20066;-65
2023/08/18 09:57:40;;;;;;;20.80;3.70;;;35.80;53.70;;;;;;5067582;28;20035;-67
2023/08/18 10:00:10;;;;;;;31.25;4.00;;;35.80;53.70;;;;;;5073388;28;20048;-64
2023/08/18 10:02:37;;;;;;;23.88;3.83;;;35.80;53.90;;;;;;5072796;28;20511;-64
2023/08/18 10:05:04;;;;;;;28.42;4.15;;;35.80;54.00;;;;;;5073515;28;20199;-65
2023/08/18 10:07:32;;;;;;;31.45;4.65;;;35.70;54.20;;;;;;5071338;28;20016;-65
2023/08/18 10:09:59;;;;;;;28.10;4.78;;;35.70;54.40;;;;;;5071254;28;20059;-63
2023/08/18 10:12:25;;;;;;;24.77;4.93;;;35.60;54.50;;;;;;5068129;28;20012;-65
2023/08/18 10:14:54;;;;;;;22.60;4.65;;;35.60;54.60;;;;;;5069158;28;20369;-66
2023/08/18 10:17:23;;;;;;;32.72;4.65;;;35.60;54.70;;;;;;5069748;28;20020;-66
2023/08/18 10:20:00;;;;;;;34.75;4.82;;;35.50;54.90;;;;;;5075934;28;20052;-67
2023/08/18 10:22:32;;;;;;;22.33;4.60;;;35.50;54.90;;;;;;5071804;28;20032;-68
2023/08/18 10:24:59;;;;;;;27.35;4.30;;;35.50;55.90;;;;;;5069975;28;20023;-65
2023/08/18 10:27:29;;;;;;;18.08;3.65;;;35.50;55.80;;;;;;5067907;28;20070;-66
2023/08/18 10:30:00;;;;;;;17.60;4.50;;;35.40;55.30;;;;;;5067494;28;20064;-64
2023/08/18 10:32:29;;;;;;;17.00;4.30;;;35.40;55.30;;;;;;5068945;28;20123;-67
2023/08/18 10:35:20;;;;;;;40.00;4.75;;;35.40;55.40;;;;;;5072629;28;20024;-65
2023/08/18 10:37:58;;;;;;;19.08;3.20;;;35.30;55.60;;;;;;5070682;28;20514;-68
2023/08/18 10:40:33;;;;;;;18.15;3.30;;;35.30;55.80;;;;;;5068416;28;20028;-64
2023/08/18 10:43:12;;;;;;;16.65;3.40;;;35.20;56.00;;;;;;5067478;28;20421;-65
2023/08/18 10:45:42;;;;;;;10.88;2.83;;;35.20;56.30;;;;;;5069882;28;20025;-64
2023/08/18 10:48:09;;;;;;;11.32;2.50;;;35.10;56.40;;;;;;5068871;28;20020;-65
2023/08/18 10:50:39;;;;;;;13.27;2.95;;;35.20;56.50;;;;;;5068812;28;20476;-66
2023/08/18 10:53:07;;;;;;;9.52;2.83;;;35.10;56.60;;;;;;5068998;28;20444;-65
2023/08/18 10:55:34;;;;;;;10.18;2.83;;;35.10;56.50;;;;;;5067255;28;20019;-63
2023/08/18 10:58:00;;;;;;;11.52;3.55;;;35.10;56.30;;;;;;5068697;28;20020;-65
2023/08/18 11:00:33;;;;;;;11.50;4.90;;;35.10;56.30;;;;;;5069025;28;20024;-68
2023/08/18 11:03:00;;;;;;;11.30;5.03;;;35.10;56.20;;;;;;5068764;28;20380;-66
2023/08/18 11:05:33;;;;;;;12.90;4.95;;;35.10;56.20;;;;;;5068268;28;20892;-67
2023/08/18 11:08:00;;;;;;;13.80;5.35;;;35.00;56.10;;;;;;5067591;28;20092;-65
2023/08/18 11:10:27;;;;;;;11.63;5.50;;;35.00;56.00;;;;;;5066912;28;20769;-67
2023/08/18 11:12:56;;;;;;;86.50;8.15;;;35.00;56.20;;;;;;5065054;28;20009;-65
2023/08/18 11:15:24;;;;;;;22.95;5.30;;;35.00;56.20;;;;;;5068890;28;20017;-66
2023/08/18 11:17:51;;;;;;;10.13;3.75;;;35.00;56.10;;;;;;5068937;28;20103;-64
2023/08/18 11:20:19;;;;;;;13.20;3.30;;;35.00;56.20;;;;;;5068941;28;20062;-66
2023/08/18 11:22:53;;;;;;;10.30;3.30;;;35.00;56.30;;;;;;5069519;28;20031;-66
2023/08/18 11:25:24;;;;;;;10.45;3.38;;;34.90;56.40;;;;;;5065665;28;20024;-65
2023/08/18 11:27:53;;;;;;;10.90;2.65;;;35.00;56.60;;;;;;5071971;28;20015;-64
2023/08/18 11:30:20;;;;;;;13.30;2.63;;;35.00;56.70;;;;;;5066917;28;20046;-64
2023/08/18 11:32:47;;;;;;;11.80;3.28;;;34.90;56.70;;;;;;5066849;28;20017;-66
2023/08/18 11:35:14;;;;;;;12.30;3.00;;;34.90;56.90;;;;;;5067439;28;20074;-65
2023/08/18 11:37:45;;;;;;;11.32;3.63;;;34.90;57.00;;;;;;5068870;28;20051;-63
2023/08/18 11:40:19;;;;;;;21.45;3.78;;;34.90;57.20;;;;;;5068915;28;20417;-65
2023/08/18 11:42:48;;;;;;;12.55;3.83;;;34.80;57.20;;;;;;5068945;28;20028;-65
2023/08/18 11:45:20;;;;;;;13.93;4.38;;;34.80;57.60;;;;;;5066839;28;20012;-65
2023/08/18 11:47:57;;;;;;;13.60;4.70;;;34.70;57.90;;;;;;5069626;28;20150;-64
2023/08/18 11:50:34;;;;;;;16.40;4.75;;;34.60;58.20;;;;;;5068678;28;22114;-65
2023/08/18 11:53:03;;;;;;;15.95;5.53;;;34.60;58.50;;;;;;5066357;28;20467;-67
2023/08/18 11:55:31;;;;;;;17.85;5.43;;;34.60;58.70;;;;;;5070024;28;20019;-67
2023/08/18 11:57:58;;;;;;;21.50;5.80;;;34.50;58.80;;;;;;5066059;28;20372;-59
2023/08/18 12:00:37;;;;;;;13.38;5.10;;;34.50;59.00;;;;;;5067906;28;20026;-66
2023/08/18 12:03:05;;;;;;;19.17;5.35;;;34.50;59.10;;;;;;5069281;28;20066;-65
2023/08/18 12:05:36;;;;;;;27.08;6.03;;;34.50;59.20;;;;;;5070728;28;20582;-65
2023/08/18 12:08:08;;;;;;;17.88;5.28;;;34.50;59.30;;;;;;5068223;28;20050;-67
2023/08/18 12:10:35;;;;;;;21.00;5.57;;;34.50;59.50;;;;;;5070813;28;20036;-65
2023/08/18 12:13:01;;;;;;;24.52;4.88;;;34.40;60.50;;;;;;5074303;28;20473;-67
2023/08/18 12:15:28;;;;;;;14.30;4.25;;;34.40;60.30;;;;;;5066382;28;20027;-66
2023/08/18 12:17:54;;;;;;;18.02;3.78;;;34.40;60.40;;;;;;5071410;28;20097;-65
2023/08/18 12:20:23;;;;;;;13.20;3.15;;;34.40;60.60;;;;;;5065740;28;20027;-65
2023/08/18 12:22:52;;;;;;;13.80;3.47;;;34.40;60.90;;;;;;5070133;28;20016;-65
2023/08/18 12:25:20;;;;;;;25.15;4.55;;;34.30;61.30;;;;;;5068902;28;20135;-63
2023/08/18 12:27:48;;;;;;;15.10;3.42;;;34.30;61.70;;;;;;5065667;28;20062;-65
2023/08/18 12:30:15;;;;;;;13.35;2.97;;;34.20;62.00;;;;;;5065433;28;20055;-65
2023/08/18 12:32:43;;;;;;;19.08;4.07;;;34.20;62.10;;;;;;5068273;28;20530;-67
2023/08/18 12:35:10;;;;;;;16.08;3.97;;;34.30;62.30;;;;;;5064889;28;20135;-65
2023/08/18 12:37:37;;;;;;;17.92;4.15;;;34.30;62.50;;;;;;5066889;28;20043;-68
2023/08/18 12:40:10;;;;;;;17.38;4.07;;;34.20;63.00;;;;;;5070091;28;20096;-64
2023/08/18 12:42:40;;;;;;;17.00;4.68;;;34.30;63.00;;;;;;5070096;28;20057;-66